sensor_id;sensor_type;location;lat;lon;timestamp;pressure;altitude;pressure_sealevel;temperature;humidity
498;BME280;39559;48.630;9.162;2023-12-20T00:02:08;97490.84;;;4.87;100.00
498;BME280;39559;48.630;9.162;2023-12-20T00:04:34;97490.81;;;4.89;100.00
498;BME280;39559;48.630;9.162;2023-12-20T00:06:59;97486.44;;;4.94;100.00
498;BME280;39559;48.630;9.162;2023-12-20T00:11:34;97485.59;;;4.93;100.00
498;BME280;39559;48.630;9.162;2023-12-20T00:13:59;97493.41;;;4.87;100.00
498;BME280;39559;48.630;9.162;2023-12-20T00:16:25;97475.34;;;4.90;100.00
498;BME280;39559;48.630;9.162;2023-12-20T00:18:50;97475.34;;;4.90;100.00
498;BME280;39559;48.630;9.162;2023-12-20T00:21:16;97481.34;;;4.91;100.00
498;BME280;39559;48.630;9.162;2023-12-20T00:23:42;97478.88;;;4.86;100.00
498;BME280;39559;48.630;9.162;2023-12-20T00:26:07;97484.84;;;4.88;100.00
498;BME280;39559;48.630;9.162;2023-12-20T00:28:33;97476.53;;;4.74;100.00
498;BME280;39559;48.630;9.162;2023-12-20T00:30:58;97460.97;;;4.80;100.00
498;BME280;39559;48.630;9.162;2023-12-20T00:35:35;97455.72;;;4.86;100.00
498;BME280;39559;48.630;9.162;2023-12-20T00:38:00;97458.47;;;4.77;100.00
498;BME280;39559;48.630;9.162;2023-12-20T00:40:26;97463.69;;;4.74;100.00
498;BME280;39559;48.630;9.162;2023-12-20T00:42:52;97472.38;;;4.68;100.00
498;BME280;39559;48.630;9.162;2023-12-20T00:45:17;97461.22;;;4.68;100.00
498;BME280;39559;48.630;9.162;2023-12-20T00:47:43;97460.38;;;4.67;100.00
498;BME280;39559;48.630;9.162;2023-12-20T00:50:09;97458.59;;;4.69;100.00
498;BME280;39559;48.630;9.162;2023-12-20T00:52:35;97457.94;;;4.59;100.00
498;BME280;39559;48.630;9.162;2023-12-20T00:55:00;97451.78;;;4.68;100.00
498;BME280;39559;48.630;9.162;2023-12-20T00:59:36;97449.34;;;4.62;100.00
498;BME280;39559;48.630;9.162;2023-12-20T01:02:01;97451.97;;;4.59;100.00
498;BME280;39559;48.630;9.162;2023-12-20T01:04:27;97456.16;;;4.63;100.00
498;BME280;39559;48.630;9.162;2023-12-20T01:06:53;97462.19;;;4.62;100.00
498;BME280;39559;48.630;9.162;2023-12-20T01:09:19;97476.16;;;4.47;100.00
498;BME280;39559;48.630;9.162;2023-12-20T01:11:45;97470.19;;;4.47;100.00
498;BME280;39559;48.630;9.162;2023-12-20T01:14:14;97484.81;;;4.43;100.00
498;BME280;39559;48.630;9.162;2023-12-20T01:16:39;97494.47;;;4.32;100.00
498;BME280;39559;48.630;9.162;2023-12-20T01:19:05;97504.00;;;4.25;100.00
498;BME280;39559;48.630;9.162;2023-12-20T01:23:36;97526.47;;;4.12;100.00
498;BME280;39559;48.630;9.162;2023-12-20T01:26:02;97527.41;;;4.08;100.00
498;BME280;39559;48.630;9.162;2023-12-20T01:28:30;97547.16;;;4.04;100.00
498;BME280;39559;48.630;9.162;2023-12-20T01:30:57;97564.44;;;3.95;100.00
498;BME280;39559;48.630;9.162;2023-12-20T01:33:22;97578.97;;;3.97;100.00
498;BME280;39559;48.630;9.162;2023-12-20T01:35:48;97581.59;;;3.93;100.00
498;BME280;39559;48.630;9.162;2023-12-20T01:38:13;97594.47;;;3.91;100.00
498;BME280;39559;48.630;9.162;2023-12-20T01:40:39;97600.50;;;3.89;100.00
498;BME280;39559;48.630;9.162;2023-12-20T01:43:08;97603.97;;;3.84;100.00
498;BME280;39559;48.630;9.162;2023-12-20T01:47:37;97626.25;;;3.84;100.00
498;BME280;39559;48.630;9.162;2023-12-20T01:50:03;97632.28;;;3.81;100.00
498;BME280;39559;48.630;9.162;2023-12-20T01:52:29;97641.69;;;3.82;100.00
498;BME280;39559;48.630;9.162;2023-12-20T01:54:55;97651.97;;;3.81;100.00
498;BME280;39559;48.630;9.162;2023-12-20T01:57:27;97661.38;;;3.82;100.00
498;BME280;39559;48.630;9.162;2023-12-20T01:59:56;97665.75;;;3.75;100.00
498;BME280;39559;48.630;9.162;2023-12-20T02:02:22;97665.75;;;3.77;100.00
498;BME280;39559;48.630;9.162;2023-12-20T02:04:47;97671.72;;;3.76;100.00
498;BME280;39559;48.630;9.162;2023-12-20T02:07:13;97673.50;;;3.69;100.00
498;BME280;39559;48.630;9.162;2023-12-20T02:11:37;97667.50;;;3.73;100.00
498;BME280;39559;48.630;9.162;2023-12-20T02:14:03;97671.75;;;3.74;100.00
498;BME280;39559;48.630;9.162;2023-12-20T02:16:29;97675.19;;;3.75;100.00
498;BME280;39559;48.630;9.162;2023-12-20T02:18:54;97682.91;;;3.73;100.00
498;BME280;39559;48.630;9.162;2023-12-20T02:21:40;97677.75;;;3.75;100.00
498;BME280;39559;48.630;9.162;2023-12-20T02:24:06;97672.63;;;3.73;100.00
498;BME280;39559;48.630;9.162;2023-12-20T02:26:32;97681.22;;;3.71;100.00
498;BME280;39559;48.630;9.162;2023-12-20T02:28:59;97679.53;;;3.70;100.00
498;BME280;39559;48.630;9.162;2023-12-20T02:31:24;97677.78;;;3.70;100.00
498;BME280;39559;48.630;9.162;2023-12-20T02:35:38;97681.19;;;3.72;100.00
498;BME280;39559;48.630;9.162;2023-12-20T02:38:03;97678.63;;;3.72;100.00
498;BME280;39559;48.630;9.162;2023-12-20T02:40:29;97684.66;;;3.71;100.00
498;BME280;39559;48.630;9.162;2023-12-20T02:42:54;97693.22;;;3.69;100.00
498;BME280;39559;48.630;9.162;2023-12-20T02:45:20;97688.06;;;3.70;100.00
498;BME280;39559;48.630;9.162;2023-12-20T02:47:45;97691.47;;;3.71;100.00
498;BME280;39559;48.630;9.162;2023-12-20T02:50:11;97688.06;;;3.72;100.00
498;BME280;39559;48.630;9.162;2023-12-20T02:52:37;97685.50;;;3.70;100.00
498;BME280;39559;48.630;9.162;2023-12-20T02:55:02;97678.69;;;3.68;100.00
498;BME280;39559;48.630;9.162;2023-12-20T02:59:38;97679.53;;;3.68;100.00
498;BME280;39559;48.630;9.162;2023-12-20T03:02:04;97677.78;;;3.73;100.00
498;BME280;39559;48.630;9.162;2023-12-20T03:04:29;97676.06;;;3.71;100.00
498;BME280;39559;48.630;9.162;2023-12-20T03:06:55;97678.59;;;3.74;100.00
498;BME280;39559;48.630;9.162;2023-12-20T03:09:20;97679.53;;;3.70;100.00
498;BME280;39559;48.630;9.162;2023-12-20T03:11:46;97676.91;;;3.73;100.00
498;BME280;39559;48.630;9.162;2023-12-20T03:14:11;97682.91;;;3.72;100.00
498;BME280;39559;48.630;9.162;2023-12-20T03:16:37;97683.72;;;3.75;100.00
498;BME280;39559;48.630;9.162;2023-12-20T03:19:03;97685.47;;;3.75;100.00
498;BME280;39559;48.630;9.162;2023-12-20T03:23:40;97681.19;;;3.72;100.00
498;BME280;39559;48.630;9.162;2023-12-20T03:26:08;97686.34;;;3.71;100.00
498;BME280;39559;48.630;9.162;2023-12-20T03:28:35;97681.22;;;3.71;100.00
498;BME280;39559;48.630;9.162;2023-12-20T03:31:01;97679.50;;;3.71;100.00
498;BME280;39559;48.630;9.162;2023-12-20T03:33:28;97688.91;;;3.69;100.00
498;BME280;39559;48.630;9.162;2023-12-20T03:35:53;97697.50;;;3.71;100.00
498;BME280;39559;48.630;9.162;2023-12-20T03:38:19;97694.91;;;3.71;100.00
498;BME280;39559;48.630;9.162;2023-12-20T03:40:45;97694.91;;;3.71;100.00
498;BME280;39559;48.630;9.162;2023-12-20T03:43:11;97700.09;;;3.67;100.00
498;BME280;39559;48.630;9.162;2023-12-20T03:47:39;97704.44;;;3.60;100.00
498;BME280;39559;48.630;9.162;2023-12-20T03:50:05;97702.75;;;3.59;100.00
498;BME280;39559;48.630;9.162;2023-12-20T03:52:30;97707.00;;;3.61;100.00
498;BME280;39559;48.630;9.162;2023-12-20T03:54:56;97709.63;;;3.57;100.00
498;BME280;39559;48.630;9.162;2023-12-20T03:57:21;97706.19;;;3.58;100.00
498;BME280;39559;48.630;9.162;2023-12-20T03:59:47;97704.50;;;3.57;100.00
498;BME280;39559;48.630;9.162;2023-12-20T04:02:12;97696.78;;;3.57;100.00
498;BME280;39559;48.630;9.162;2023-12-20T04:04:38;97706.25;;;3.55;100.00
498;BME280;39559;48.630;9.162;2023-12-20T04:07:03;97706.25;;;3.52;100.00
498;BME280;39559;48.630;9.162;2023-12-20T04:11:39;97715.69;;;3.50;100.00
498;BME280;39559;48.630;9.162;2023-12-20T04:14:05;97720.88;;;3.43;100.00
498;BME280;39559;48.630;9.162;2023-12-20T04:16:30;97721.72;;;3.45;100.00
498;BME280;39559;48.630;9.162;2023-12-20T04:18:56;97716.63;;;3.44;100.00
498;BME280;39559;48.630;9.162;2023-12-20T04:21:21;97717.47;;;3.44;100.00
498;BME280;39559;48.630;9.162;2023-12-20T04:23:47;97713.22;;;3.40;100.00
498;BME280;39559;48.630;9.162;2023-12-20T04:26:12;97723.53;;;3.37;100.00
498;BME280;39559;48.630;9.162;2023-12-20T04:28:38;97735.47;;;3.38;100.00
498;BME280;39559;48.630;9.162;2023-12-20T04:31:03;97739.78;;;3.36;100.00
498;BME280;39559;48.630;9.162;2023-12-20T04:35:40;97752.66;;;3.35;100.00
498;BME280;39559;48.630;9.162;2023-12-20T04:38:06;97740.59;;;3.38;100.00
498;BME280;39559;48.630;9.162;2023-12-20T04:40:32;97732.97;;;3.32;100.00
498;BME280;39559;48.630;9.162;2023-12-20T04:42:57;97730.41;;;3.34;100.00
498;BME280;39559;48.630;9.162;2023-12-20T04:45:23;97749.25;;;3.31;100.00
498;BME280;39559;48.630;9.162;2023-12-20T04:47:50;97745.81;;;3.34;100.00
498;BME280;39559;48.630;9.162;2023-12-20T04:50:16;97757.75;;;3.36;100.00
498;BME280;39559;48.630;9.162;2023-12-20T04:52:42;97751.78;;;3.36;100.00
498;BME280;39559;48.630;9.162;2023-12-20T04:55:08;97767.97;;;3.42;100.00
498;BME280;39559;48.630;9.162;2023-12-20T04:59:40;97767.13;;;3.40;100.00
498;BME280;39559;48.630;9.162;2023-12-20T05:02:06;97766.31;;;3.35;100.00
498;BME280;39559;48.630;9.162;2023-12-20T05:04:32;97751.78;;;3.34;100.00
498;BME280;39559;48.630;9.162;2023-12-20T05:06:58;97764.63;;;3.33;100.00
498;BME280;39559;48.630;9.162;2023-12-20T05:09:23;97762.09;;;3.30;100.00
498;BME280;39559;48.630;9.162;2023-12-20T05:11:49;97770.66;;;3.27;100.00
498;BME280;39559;48.630;9.162;2023-12-20T05:14:14;97770.63;;;3.32;100.00
498;BME280;39559;48.630;9.162;2023-12-20T05:16:40;97777.44;;;3.34;100.00
498;BME280;39559;48.630;9.162;2023-12-20T05:19:06;97768.91;;;3.31;100.00
498;BME280;39559;48.630;9.162;2023-12-20T05:23:40;97780.00;;;3.36;100.00
498;BME280;39559;48.630;9.162;2023-12-20T05:26:06;97783.47;;;3.35;100.00
498;BME280;39559;48.630;9.162;2023-12-20T05:28:31;97786.03;;;3.35;100.00
498;BME280;39559;48.630;9.162;2023-12-20T05:30:57;97784.31;;;3.34;100.00
498;BME280;39559;48.630;9.162;2023-12-20T05:33:23;97785.13;;;3.36;100.00
498;BME280;39559;48.630;9.162;2023-12-20T05:35:48;97791.94;;;3.38;100.00
498;BME280;39559;48.630;9.162;2023-12-20T05:38:14;97796.31;;;3.29;100.00
498;BME280;39559;48.630;9.162;2023-12-20T05:40:40;97792.06;;;3.26;100.00
498;BME280;39559;48.630;9.162;2023-12-20T05:43:05;97793.81;;;3.21;100.00
498;BME280;39559;48.630;9.162;2023-12-20T05:47:42;97793.75;;;3.30;100.00
498;BME280;39559;48.630;9.162;2023-12-20T05:50:08;97804.84;;;3.31;100.00
498;BME280;39559;48.630;9.162;2023-12-20T05:52:34;97802.34;;;3.23;100.00
498;BME280;39559;48.630;9.162;2023-12-20T05:54:59;97798.88;;;3.30;100.00
498;BME280;39559;48.630;9.162;2023-12-20T05:57:27;97797.16;;;3.31;100.00
498;BME280;39559;48.630;9.162;2023-12-20T05:59:52;97810.03;;;3.28;100.00
498;BME280;39559;48.630;9.162;2023-12-20T06:02:18;97800.63;;;3.28;100.00
498;BME280;39559;48.630;9.162;2023-12-20T06:04:44;97808.31;;;3.26;100.00
498;BME280;39559;48.630;9.162;2023-12-20T06:07:13;97804.03;;;3.27;100.00
498;BME280;39559;48.630;9.162;2023-12-20T06:11:42;97810.00;;;3.29;100.00
498;BME280;39559;48.630;9.162;2023-12-20T06:14:08;97822.00;;;3.29;100.00
498;BME280;39559;48.630;9.162;2023-12-20T06:16:33;97816.00;;;3.31;100.00
498;BME280;39559;48.630;9.162;2023-12-20T06:18:59;97813.47;;;3.26;100.00
498;BME280;39559;48.630;9.162;2023-12-20T06:21:24;97815.19;;;3.24;100.00
498;BME280;39559;48.630;9.162;2023-12-20T06:23:50;97820.34;;;3.21;100.00
498;BME280;39559;48.630;9.162;2023-12-20T06:26:15;97824.53;;;3.30;100.00
498;BME280;39559;48.630;9.162;2023-12-20T06:28:41;97825.28;;;3.43;100.00
498;BME280;39559;48.630;9.162;2023-12-20T06:31:06;97828.78;;;3.37;100.00
498;BME280;39559;48.630;9.162;2023-12-20T06:35:41;97825.34;;;3.37;100.00
498;BME280;39559;48.630;9.162;2023-12-20T06:38:07;97819.41;;;3.30;100.00
498;BME280;39559;48.630;9.162;2023-12-20T06:40:34;97815.19;;;3.21;100.00
498;BME280;39559;48.630;9.162;2023-12-20T06:42:59;97815.19;;;3.21;100.00
498;BME280;39559;48.630;9.162;2023-12-20T06:45:25;97818.66;;;3.17;100.00
498;BME280;39559;48.630;9.162;2023-12-20T06:47:50;97826.38;;;3.16;100.00
498;BME280;39559;48.630;9.162;2023-12-20T06:50:16;97832.31;;;3.24;100.00
498;BME280;39559;48.630;9.162;2023-12-20T06:52:41;97834.00;;;3.22;100.00
498;BME280;39559;48.630;9.162;2023-12-20T06:55:07;97837.41;;;3.25;100.00
498;BME280;39559;48.630;9.162;2023-12-20T06:59:42;97842.44;;;3.41;100.00
498;BME280;39559;48.630;9.162;2023-12-20T07:02:10;97848.34;;;3.49;100.00
498;BME280;39559;48.630;9.162;2023-12-20T07:04:40;97839.84;;;3.44;100.00
498;BME280;39559;48.630;9.162;2023-12-20T07:07:06;97833.00;;;3.40;100.00
498;BME280;39559;48.630;9.162;2023-12-20T07:09:32;97838.97;;;3.42;100.00
498;BME280;39559;48.630;9.162;2023-12-20T07:11:58;97836.47;;;3.39;100.00
498;BME280;39559;48.630;9.162;2023-12-20T07:14:24;97838.22;;;3.32;100.00
498;BME280;39559;48.630;9.162;2023-12-20T07:16:50;97844.19;;;3.33;100.00
498;BME280;39559;48.630;9.162;2023-12-20T07:19:16;97848.53;;;3.26;100.00
498;BME280;39559;48.630;9.162;2023-12-20T07:23:42;97855.34;;;3.33;100.00
498;BME280;39559;48.630;9.162;2023-12-20T07:26:08;97855.34;;;3.33;100.00
498;BME280;39559;48.630;9.162;2023-12-20T07:28:33;97866.44;;;3.32;100.00
498;BME280;39559;48.630;9.162;2023-12-20T07:30:59;97869.88;;;3.33;100.00
498;BME280;39559;48.630;9.162;2023-12-20T07:33:25;97872.41;;;3.40;100.00
498;BME280;39559;48.630;9.162;2023-12-20T07:35:50;97886.06;;;3.42;100.00
498;BME280;39559;48.630;9.162;2023-12-20T07:38:17;97887.75;;;3.43;100.00
498;BME280;39559;48.630;9.162;2023-12-20T07:40:42;97889.47;;;3.44;100.00
498;BME280;39559;48.630;9.162;2023-12-20T07:43:08;97883.50;;;3.39;100.00
498;BME280;39559;48.630;9.162;2023-12-20T07:47:42;97891.19;;;3.42;100.00
498;BME280;39559;48.630;9.162;2023-12-20T07:50:08;97890.31;;;3.45;100.00
498;BME280;39559;48.630;9.162;2023-12-20T07:52:33;97897.13;;;3.51;100.00
498;BME280;39559;48.630;9.162;2023-12-20T07:54:59;97902.97;;;3.68;100.00
498;BME280;39559;48.630;9.162;2023-12-20T07:57:25;97890.06;;;3.74;100.00
498;BME280;39559;48.630;9.162;2023-12-20T07:59:50;97889.22;;;3.74;100.00
498;BME280;39559;48.630;9.162;2023-12-20T08:02:16;97884.94;;;3.73;100.00
498;BME280;39559;48.630;9.162;2023-12-20T08:04:41;97887.50;;;3.73;100.00
498;BME280;39559;48.630;9.162;2023-12-20T08:07:07;97884.13;;;3.69;100.00
498;BME280;39559;48.630;9.162;2023-12-20T08:11:49;97888.41;;;3.69;100.00
498;BME280;39559;48.630;9.162;2023-12-20T08:14:15;97897.00;;;3.64;100.00
498;BME280;39559;48.630;9.162;2023-12-20T08:16:41;97891.88;;;3.64;100.00
498;BME280;39559;48.630;9.162;2023-12-20T08:19:07;97887.69;;;3.53;100.00
498;BME280;39559;48.630;9.162;2023-12-20T08:21:33;97909.09;;;3.52;100.00
498;BME280;39559;48.630;9.162;2023-12-20T08:23:59;97908.28;;;3.46;100.00
498;BME280;39559;48.630;9.162;2023-12-20T08:26:26;97903.13;;;3.48;100.00
498;BME280;39559;48.630;9.162;2023-12-20T08:28:51;97921.13;;;3.45;100.00
498;BME280;39559;48.630;9.162;2023-12-20T08:31:17;97932.22;;;3.50;100.00
498;BME280;39559;48.630;9.162;2023-12-20T08:35:43;97936.53;;;3.45;100.00
498;BME280;39559;48.630;9.162;2023-12-20T08:38:09;97934.84;;;3.42;100.00
498;BME280;39559;48.630;9.162;2023-12-20T08:40:34;97942.53;;;3.44;100.00
498;BME280;39559;48.630;9.162;2023-12-20T08:43:00;97954.44;;;3.54;100.00
498;BME280;39559;48.630;9.162;2023-12-20T08:45:26;97950.03;;;3.75;100.00
498;BME280;39559;48.630;9.162;2023-12-20T08:47:51;97960.31;;;3.73;100.00
498;BME280;39559;48.630;9.162;2023-12-20T08:50:17;97951.78;;;3.68;100.00
498;BME280;39559;48.630;9.162;2023-12-20T08:52:43;97959.47;;;3.68;100.00
498;BME280;39559;48.630;9.162;2023-12-20T08:55:09;97949.28;;;3.59;100.00
498;BME280;39559;48.630;9.162;2023-12-20T08:59:44;97970.69;;;3.56;100.00
498;BME280;39559;48.630;9.162;2023-12-20T09:02:09;97980.00;;;3.71;100.00
498;BME280;39559;48.630;9.162;2023-12-20T09:04:35;97982.59;;;3.70;100.00
498;BME280;39559;48.630;9.162;2023-12-20T09:07:00;97986.78;;;3.81;100.00
498;BME280;39559;48.630;9.162;2023-12-20T09:09:26;97975.72;;;3.72;100.00
498;BME280;39559;48.630;9.162;2023-12-20T09:11:52;97962.03;;;3.71;100.00
498;BME280;39559;48.630;9.162;2023-12-20T09:14:17;97955.38;;;3.44;100.00
498;BME280;39559;48.630;9.162;2023-12-20T09:16:43;97954.50;;;3.45;100.00
498;BME280;39559;48.630;9.162;2023-12-20T09:19:08;97960.53;;;3.41;100.00
498;BME280;39559;48.630;9.162;2023-12-20T09:23:44;97917.72;;;3.44;100.00
498;BME280;39559;48.630;9.162;2023-12-20T09:26:10;97904.03;;;3.44;100.00
498;BME280;39559;48.630;9.162;2023-12-20T09:28:36;97879.84;;;3.70;100.00
498;BME280;39559;48.630;9.162;2023-12-20T09:31:03;97859.16;;;3.82;100.00
498;BME280;39559;48.630;9.162;2023-12-20T09:33:29;97841.22;;;3.80;100.00
498;BME280;39559;48.630;9.162;2023-12-20T09:35:55;97852.16;;;3.99;100.00
498;BME280;39559;48.630;9.162;2023-12-20T09:38:20;97842.31;;;4.38;100.00
498;BME280;39559;48.630;9.162;2023-12-20T09:40:46;97834.75;;;4.25;100.00
498;BME280;39559;48.630;9.162;2023-12-20T09:43:15;97818.28;;;4.38;100.00
498;BME280;39559;48.630;9.162;2023-12-20T09:47:44;97805.94;;;4.66;100.00
498;BME280;39559;48.630;9.162;2023-12-20T09:50:10;97797.19;;;4.76;100.00
498;BME280;39559;48.630;9.162;2023-12-20T09:52:38;97800.38;;;4.95;100.00
498;BME280;39559;48.630;9.162;2023-12-20T09:55:04;97799.41;;;5.54;100.00
498;BME280;39559;48.630;9.162;2023-12-20T09:57:33;97805.25;;;5.64;100.00
498;BME280;39559;48.630;9.162;2023-12-20T09:59:59;97797.03;;;5.43;100.00
498;BME280;39559;48.630;9.162;2023-12-20T10:02:25;97801.00;;;5.63;100.00
498;BME280;39559;48.630;9.162;2023-12-20T10:04:55;97796.88;;;5.52;100.00
498;BME280;39559;48.630;9.162;2023-12-20T10:07:21;97793.81;;;5.30;100.00
498;BME280;39559;48.630;9.162;2023-12-20T10:11:44;97780.81;;;4.84;100.00
498;BME280;39559;48.630;9.162;2023-12-20T10:14:10;97774.34;;;5.12;100.00
498;BME280;39559;48.630;9.162;2023-12-20T10:16:36;97767.47;;;5.13;100.00
498;BME280;39559;48.630;9.162;2023-12-20T10:19:01;97777.38;;;4.85;100.00
498;BME280;39559;48.630;9.162;2023-12-20T10:21:27;97785.94;;;4.85;100.00
498;BME280;39559;48.630;9.162;2023-12-20T10:23:54;97789.13;;;5.01;100.00
498;BME280;39559;48.630;9.162;2023-12-20T10:26:29;97772.88;;;4.97;100.00
498;BME280;39559;48.630;9.162;2023-12-20T10:28:59;97771.13;;;4.99;100.00
498;BME280;39559;48.630;9.162;2023-12-20T10:31:36;97755.81;;;4.93;100.00
498;BME280;39559;48.630;9.162;2023-12-20T10:35:44;97745.16;;;5.15;100.00
498;BME280;39559;48.630;9.162;2023-12-20T10:38:11;97746.03;;;5.12;100.00
498;BME280;39559;48.630;9.162;2023-12-20T10:40:38;97739.78;;;5.27;100.00
498;BME280;39559;48.630;9.162;2023-12-20T10:43:04;97737.19;;;5.29;100.00
498;BME280;39559;48.630;9.162;2023-12-20T10:45:30;97738.91;;;5.28;100.00
498;BME280;39559;48.630;9.162;2023-12-20T10:47:58;97741.25;;;5.42;100.00
498;BME280;39559;48.630;9.162;2023-12-20T10:50:27;97738.59;;;5.47;100.00
498;BME280;39559;48.630;9.162;2023-12-20T10:52:56;97736.16;;;5.86;100.00
498;BME280;39559;48.630;9.162;2023-12-20T10:55:23;97741.88;;;6.00;100.00
498;BME280;39559;48.630;9.162;2023-12-20T10:59:45;97743.16;;;5.77;100.00
498;BME280;39559;48.630;9.162;2023-12-20T11:02:14;97747.16;;;5.95;100.00
498;BME280;39559;48.630;9.162;2023-12-20T11:04:59;97739.47;;;5.91;100.00
498;BME280;39559;48.630;9.162;2023-12-20T11:07:35;97734.06;;;5.60;100.00
498;BME280;39559;48.630;9.162;2023-12-20T11:12:57;97728.28;;;4.98;100.00
498;BME280;39559;48.630;9.162;2023-12-20T11:15:24;97735.22;;;4.93;100.00
498;BME280;39559;48.630;9.162;2023-12-20T11:17:56;97734.44;;;4.87;100.00
498;BME280;39559;48.630;9.162;2023-12-20T11:20:39;97736.19;;;4.86;100.00
498;BME280;39559;48.630;9.162;2023-12-20T11:23:45;97743.06;;;4.84;100.00
498;BME280;39559;48.630;9.162;2023-12-20T11:26:11;97737.94;;;4.83;100.00
498;BME280;39559;48.630;9.162;2023-12-20T11:28:36;97729.44;;;4.79;100.00
498;BME280;39559;48.630;9.162;2023-12-20T11:31:02;97730.38;;;4.73;100.00
498;BME280;39559;48.630;9.162;2023-12-20T11:33:36;97728.50;;;4.83;100.00
498;BME280;39559;48.630;9.162;2023-12-20T11:36:02;97725.91;;;4.85;100.00
498;BME280;39559;48.630;9.162;2023-12-20T11:38:37;97728.91;;;5.11;100.00
498;BME280;39559;48.630;9.162;2023-12-20T11:41:06;97725.44;;;5.14;100.00
498;BME280;39559;48.630;9.162;2023-12-20T11:43:39;97727.84;;;5.23;100.00
498;BME280;39559;48.630;9.162;2023-12-20T11:47:46;97724.25;;;5.33;100.00
498;BME280;39559;48.630;9.162;2023-12-20T11:50:12;97715.59;;;5.83;100.00
498;BME280;39559;48.630;9.162;2023-12-20T11:52:38;97719.19;;;6.57;100.00
498;BME280;39559;48.630;9.162;2023-12-20T11:55:04;97716.25;;;6.72;100.00
498;BME280;39559;48.630;9.162;2023-12-20T11:57:31;97715.19;;;6.04;100.00
498;BME280;39559;48.630;9.162;2023-12-20T11:59:57;97715.69;;;5.76;100.00
498;BME280;39559;48.630;9.162;2023-12-20T12:02:22;97721.13;;;5.13;100.00
498;BME280;39559;48.630;9.162;2023-12-20T12:04:52;97726.81;;;4.82;100.00
498;BME280;39559;48.630;9.162;2023-12-20T12:07:18;97723.41;;;4.80;100.00
498;BME280;39559;48.630;9.162;2023-12-20T12:11:45;97717.44;;;4.76;100.00
498;BME280;39559;48.630;9.162;2023-12-20T12:14:10;97716.31;;;4.38;100.00
498;BME280;39559;48.630;9.162;2023-12-20T12:16:37;97720.72;;;4.29;100.00
498;BME280;39559;48.630;9.162;2023-12-20T12:19:02;97715.72;;;4.18;100.00
498;BME280;39559;48.630;9.162;2023-12-20T12:21:29;97720.97;;;4.10;100.00
498;BME280;39559;48.630;9.162;2023-12-20T12:24:07;97722.72;;;4.08;100.00
498;BME280;39559;48.630;9.162;2023-12-20T12:26:32;97714.31;;;3.97;100.00
498;BME280;39559;48.630;9.162;2023-12-20T12:28:58;97709.16;;;3.97;100.00
498;BME280;39559;48.630;9.162;2023-12-20T12:31:23;97710.84;;;3.98;100.00
498;BME280;39559;48.630;9.162;2023-12-20T12:35:42;97698.91;;;3.94;100.00
498;BME280;39559;48.630;9.162;2023-12-20T12:38:09;97691.19;;;3.95;100.00
498;BME280;39559;48.630;9.162;2023-12-20T12:40:34;97687.66;;;4.04;100.00
498;BME280;39559;48.630;9.162;2023-12-20T12:43:01;97689.31;;;4.08;100.00
498;BME280;39559;48.630;9.162;2023-12-20T12:45:26;97693.50;;;4.15;100.00
498;BME280;39559;48.630;9.162;2023-12-20T12:47:52;97691.09;;;4.01;100.00
498;BME280;39559;48.630;9.162;2023-12-20T12:50:20;97694.56;;;3.99;100.00
498;BME280;39559;48.630;9.162;2023-12-20T12:52:46;97685.94;;;4.04;100.00
498;BME280;39559;48.630;9.162;2023-12-20T12:55:12;97687.59;;;4.07;100.00
498;BME280;39559;48.630;9.162;2023-12-20T12:59:45;97691.88;;;4.08;100.00
498;BME280;39559;48.630;9.162;2023-12-20T13:02:12;97692.00;;;3.99;100.00
498;BME280;39559;48.630;9.162;2023-12-20T13:04:42;97693.69;;;4.00;100.00
498;BME280;39559;48.630;9.162;2023-12-20T13:07:09;97704.78;;;4.03;100.00
498;BME280;39559;48.630;9.162;2023-12-20T13:09:38;97696.72;;;4.30;100.00
498;BME280;39559;48.630;9.162;2023-12-20T13:12:05;97688.94;;;4.33;100.00
498;BME280;39559;48.630;9.162;2023-12-20T13:14:35;97679.44;;;4.38;100.00
498;BME280;39559;48.630;9.162;2023-12-20T13:17:04;97674.44;;;4.30;100.00
498;BME280;39559;48.630;9.162;2023-12-20T13:19:29;97660.81;;;4.23;100.00
498;BME280;39559;48.630;9.162;2023-12-20T13:23:44;97659.91;;;4.28;100.00
498;BME280;39559;48.630;9.162;2023-12-20T13:26:10;97662.44;;;4.29;100.00
498;BME280;39559;48.630;9.162;2023-12-20T13:28:56;97670.75;;;4.47;100.00
498;BME280;39559;48.630;9.162;2023-12-20T13:31:22;97670.78;;;4.43;100.00
498;BME280;39559;48.630;9.162;2023-12-20T13:33:48;97673.44;;;4.39;100.00
498;BME280;39559;48.630;9.162;2023-12-20T13:36:14;97667.06;;;4.65;100.00
498;BME280;39559;48.630;9.162;2023-12-20T13:38:40;97661.47;;;4.91;100.00
498;BME280;39559;48.630;9.162;2023-12-20T13:41:06;97664.00;;;4.94;100.00
498;BME280;39559;48.630;9.162;2023-12-20T13:43:32;97672.88;;;4.76;100.00
498;BME280;39559;48.630;9.162;2023-12-20T13:47:45;97681.72;;;4.58;100.00
498;BME280;39559;48.630;9.162;2023-12-20T13:50:11;97674.78;;;4.63;100.00
498;BME280;39559;48.630;9.162;2023-12-20T13:52:38;97676.91;;;4.91;100.00
498;BME280;39559;48.630;9.162;2023-12-20T13:55:04;97679.81;;;4.71;100.00
498;BME280;39559;48.630;9.162;2023-12-20T13:57:33;97673.81;;;4.70;100.00
498;BME280;39559;48.630;9.162;2023-12-20T14:00:00;97688.53;;;4.62;100.00
498;BME280;39559;48.630;9.162;2023-12-20T14:02:25;97689.28;;;4.69;100.00
498;BME280;39559;48.630;9.162;2023-12-20T14:04:52;97693.63;;;4.65;100.00
498;BME280;39559;48.630;9.162;2023-12-20T14:07:18;97692.06;;;4.55;100.00
498;BME280;39559;48.630;9.162;2023-12-20T14:11:44;97688.47;;;4.65;100.00
498;BME280;39559;48.630;9.162;2023-12-20T14:14:11;97683.47;;;4.56;100.00
498;BME280;39559;48.630;9.162;2023-12-20T14:16:37;97679.25;;;4.53;100.00
498;BME280;39559;48.630;9.162;2023-12-20T14:19:03;97667.28;;;4.49;100.00
498;BME280;39559;48.630;9.162;2023-12-20T14:21:30;97669.31;;;4.29;100.00
498;BME280;39559;48.630;9.162;2023-12-20T14:23:56;97669.31;;;4.27;100.00
498;BME280;39559;48.630;9.162;2023-12-20T14:26:21;97665.19;;;4.18;100.00
498;BME280;39559;48.630;9.162;2023-12-20T14:28:47;97662.84;;;4.00;100.00
498;BME280;39559;48.630;9.162;2023-12-20T14:31:13;97665.53;;;3.92;100.00
498;BME280;39559;48.630;9.162;2023-12-20T14:35:44;97642.59;;;3.78;100.00